sensor_id;sensor_type;location;lat;lon;timestamp;pressure;altitude;pressure_sealevel;temperature;humidity
57801;BME280;43627;42.728;23.256;2022-10-16T00:01:08;95649.31;;;7.02;100.00
57801;BME280;43627;42.728;23.256;2022-10-16T00:03:39;95651.13;;;6.88;100.00
57801;BME280;43627;42.728;23.256;2022-10-16T00:06:07;95662.63;;;6.76;100.00
57801;BME280;43627;42.728;23.256;2022-10-16T00:08:35;95650.56;;;6.61;100.00
57801;BME280;43627;42.728;23.256;2022-10-16T00:11:13;95647.94;;;6.57;100.00
57801;BME280;43627;42.728;23.256;2022-10-16T00:13:41;95645.78;;;6.49;100.00
57801;BME280;43627;42.728;23.256;2022-10-16T00:16:10;95662.72;;;6.53;100.00
57801;BME280;43627;42.728;23.256;2022-10-16T00:18:37;95643.94;;;6.46;100.00
57801;BME280;43627;42.728;23.256;2022-10-16T00:21:06;95658.91;;;6.50;100.00
57801;BME280;43627;42.728;23.256;2022-10-16T00:23:33;95670.38;;;6.58;100.00
57801;BME280;43627;42.728;23.256;2022-10-16T00:26:02;95659.56;;;6.38;100.00
57801;BME280;43627;42.728;23.256;2022-10-16T00:28:29;95662.38;;;6.51;100.00
57801;BME280;43627;42.728;23.256;2022-10-16T00:30:56;95672.75;;;6.56;100.00
57801;BME280;43627;42.728;23.256;2022-10-16T00:33:24;95672.78;;;6.52;100.00
57801;BME280;43627;42.728;23.256;2022-10-16T00:35:51;95671.97;;;6.55;100.00
57801;BME280;43627;42.728;23.256;2022-10-16T00:38:17;95683.03;;;6.65;100.00
57801;BME280;43627;42.728;23.256;2022-10-16T00:40:44;95664.94;;;6.58;100.00
57801;BME280;43627;42.728;23.256;2022-10-16T00:46:35;95676.75;;;6.68;100.00
57801;BME280;43627;42.728;23.256;2022-10-16T00:49:05;95666.81;;;6.61;100.00
57801;BME280;43627;42.728;23.256;2022-10-16T00:51:37;95669.53;;;6.61;100.00
57801;BME280;43627;42.728;23.256;2022-10-16T00:54:09;95673.72;;;6.66;100.00
57801;BME280;43627;42.728;23.256;2022-10-16T00:56:37;95669.81;;;6.67;100.00
57801;BME280;43627;42.728;23.256;2022-10-16T00:59:07;95663.44;;;6.57;100.00
57801;BME280;43627;42.728;23.256;2022-10-16T01:01:38;95676.06;;;6.44;100.00
57801;BME280;43627;42.728;23.256;2022-10-16T01:04:04;95668.91;;;6.53;100.00
57801;BME280;43627;42.728;23.256;2022-10-16T01:09:33;95671.22;;;6.55;100.00
57801;BME280;43627;42.728;23.256;2022-10-16T01:15:41;95680.16;;;6.72;100.00
57801;BME280;43627;42.728;23.256;2022-10-16T01:20:44;95674.88;;;6.65;100.00
57801;BME280;43627;42.728;23.256;2022-10-16T01:31:24;95662.09;;;6.65;100.00
57801;BME280;43627;42.728;23.256;2022-10-16T01:34:15;95668.75;;;6.61;100.00
57801;BME280;43627;42.728;23.256;2022-10-16T01:36:52;95655.44;;;6.50;100.00
57801;BME280;43627;42.728;23.256;2022-10-16T01:39:24;95665.94;;;6.48;100.00
57801;BME280;43627;42.728;23.256;2022-10-16T01:42:00;95673.72;;;6.46;100.00
57801;BME280;43627;42.728;23.256;2022-10-16T01:44:32;95679.19;;;6.42;100.00
57801;BME280;43627;42.728;23.256;2022-10-16T01:47:00;95669.97;;;6.40;100.00
57801;BME280;43627;42.728;23.256;2022-10-16T01:49:31;95690.09;;;6.39;100.00
57801;BME280;43627;42.728;23.256;2022-10-16T01:52:00;95678.16;;;6.36;100.00
57801;BME280;43627;42.728;23.256;2022-10-16T01:54:30;95683.22;;;6.34;100.00
57801;BME280;43627;42.728;23.256;2022-10-16T01:56:59;95679.47;;;6.28;100.00
57801;BME280;43627;42.728;23.256;2022-10-16T01:59:28;95678.97;;;6.13;100.00
57801;BME280;43627;42.728;23.256;2022-10-16T02:02:06;95682.78;;;6.16;100.00
57801;BME280;43627;42.728;23.256;2022-10-16T02:04:42;95693.69;;;6.12;100.00
57801;BME280;43627;42.728;23.256;2022-10-16T02:07:10;95691.06;;;6.09;100.00
57801;BME280;43627;42.728;23.256;2022-10-16T02:09:37;95701.47;;;6.10;100.00
57801;BME280;43627;42.728;23.256;2022-10-16T02:12:14;95704.19;;;6.10;100.00
57801;BME280;43627;42.728;23.256;2022-10-16T02:14:42;95707.75;;;6.04;100.00
57801;BME280;43627;42.728;23.256;2022-10-16T02:17:15;95710.59;;;5.96;100.00
57801;BME280;43627;42.728;23.256;2022-10-16T02:19:42;95706.94;;;5.83;100.00
57801;BME280;43627;42.728;23.256;2022-10-16T02:22:16;95698.66;;;5.70;100.00
57801;BME280;43627;42.728;23.256;2022-10-16T02:24:59;95688.25;;;5.69;100.00
57801;BME280;43627;42.728;23.256;2022-10-16T02:27:55;95699.28;;;5.55;100.00
57801;BME280;43627;42.728;23.256;2022-10-16T02:30:38;95716.06;;;5.69;100.00
57801;BME280;43627;42.728;23.256;2022-10-16T02:33:09;95714.22;;;5.63;100.00
57801;BME280;43627;42.728;23.256;2022-10-16T02:35:37;95713.47;;;5.62;100.00
57801;BME280;43627;42.728;23.256;2022-10-16T02:38:05;95702.53;;;5.69;100.00
57801;BME280;43627;42.728;23.256;2022-10-16T02:40:33;95708.72;;;5.70;100.00
57801;BME280;43627;42.728;23.256;2022-10-16T02:43:00;95711.41;;;5.70;100.00
57801;BME280;43627;42.728;23.256;2022-10-16T02:45:29;95706.63;;;5.78;100.00
57801;BME280;43627;42.728;23.256;2022-10-16T02:47:56;95711.28;;;5.77;100.00
57801;BME280;43627;42.728;23.256;2022-10-16T02:50:23;95729.00;;;5.82;100.00
57801;BME280;43627;42.728;23.256;2022-10-16T02:52:51;95729.09;;;5.74;100.00
57801;BME280;43627;42.728;23.256;2022-10-16T02:55:18;95736.28;;;5.61;100.00
57801;BME280;43627;42.728;23.256;2022-10-16T02:57:45;95729.91;;;5.48;100.00
57801;BME280;43627;42.728;23.256;2022-10-16T03:00:14;95733.09;;;5.43;100.00
57801;BME280;43627;42.728;23.256;2022-10-16T03:02:42;95734.44;;;5.01;100.00
57801;BME280;43627;42.728;23.256;2022-10-16T03:05:09;95733.09;;;4.85;100.00
57801;BME280;43627;42.728;23.256;2022-10-16T03:07:37;95731.38;;;4.99;100.00
57801;BME280;43627;42.728;23.256;2022-10-16T03:10:05;95727.84;;;5.02;100.00
57801;BME280;43627;42.728;23.256;2022-10-16T03:12:32;95740.41;;;4.88;100.00
57801;BME280;43627;42.728;23.256;2022-10-16T03:14:59;95728.28;;;4.70;100.00
57801;BME280;43627;42.728;23.256;2022-10-16T03:17:25;95732.72;;;4.53;100.00
57801;BME280;43627;42.728;23.256;2022-10-16T03:19:53;95735.50;;;4.46;100.00
57801;BME280;43627;42.728;23.256;2022-10-16T03:22:19;95742.09;;;4.41;100.00
57801;BME280;43627;42.728;23.256;2022-10-16T03:24:46;95721.81;;;4.26;100.00
57801;BME280;43627;42.728;23.256;2022-10-16T03:27:13;95749.41;;;4.44;100.00
57801;BME280;43627;42.728;23.256;2022-10-16T03:29:40;95753.97;;;4.51;100.00
57801;BME280;43627;42.728;23.256;2022-10-16T03:32:06;95752.34;;;4.57;100.00
57801;BME280;43627;42.728;23.256;2022-10-16T03:34:33;95754.94;;;4.68;100.00
57801;BME280;43627;42.728;23.256;2022-10-16T03:37:00;95750.63;;;4.74;100.00
57801;BME280;43627;42.728;23.256;2022-10-16T03:39:26;95749.31;;;4.51;100.00
57801;BME280;43627;42.728;23.256;2022-10-16T03:41:53;95733.09;;;4.55;100.00
57801;BME280;43627;42.728;23.256;2022-10-16T03:44:20;95747.94;;;4.74;100.00
57801;BME280;43627;42.728;23.256;2022-10-16T03:46:47;95722.06;;;4.73;100.00
57801;BME280;43627;42.728;23.256;2022-10-16T03:49:14;95746.22;;;4.87;100.00
57801;BME280;43627;42.728;23.256;2022-10-16T03:51:40;95735.00;;;4.88;100.00
57801;BME280;43627;42.728;23.256;2022-10-16T03:54:07;95739.97;;;4.90;100.00
57801;BME280;43627;42.728;23.256;2022-10-16T03:56:34;95735.00;;;4.88;100.00
57801;BME280;43627;42.728;23.256;2022-10-16T03:59:01;95737.25;;;4.94;100.00
57801;BME280;43627;42.728;23.256;2022-10-16T04:01:28;95733.16;;;5.12;100.00
57801;BME280;43627;42.728;23.256;2022-10-16T04:03:55;95750.22;;;5.06;100.00
57801;BME280;43627;42.728;23.256;2022-10-16T04:06:21;95745.00;;;5.19;100.00
57801;BME280;43627;42.728;23.256;2022-10-16T04:08:48;95740.84;;;5.14;100.00
57801;BME280;43627;42.728;23.256;2022-10-16T04:11:15;95738.16;;;5.10;100.00
57801;BME280;43627;42.728;23.256;2022-10-16T04:13:42;95754.31;;;5.18;100.00
57801;BME280;43627;42.728;23.256;2022-10-16T04:16:10;95754.84;;;5.05;100.00
57801;BME280;43627;42.728;23.256;2022-10-16T04:18:36;95741.50;;;4.91;100.00
57801;BME280;43627;42.728;23.256;2022-10-16T04:21:06;95740.41;;;4.88;100.00
57801;BME280;43627;42.728;23.256;2022-10-16T04:23:33;95746.16;;;4.91;100.00
57801;BME280;43627;42.728;23.256;2022-10-16T04:26:00;95746.25;;;4.83;100.00
57801;BME280;43627;42.728;23.256;2022-10-16T04:28:27;95739.63;;;4.88;100.00
57801;BME280;43627;42.728;23.256;2022-10-16T04:30:54;95723.91;;;4.79;100.00
57801;BME280;43627;42.728;23.256;2022-10-16T04:33:21;95758.31;;;5.06;100.00
57801;BME280;43627;42.728;23.256;2022-10-16T04:35:48;95759.09;;;5.06;100.00
57801;BME280;43627;42.728;23.256;2022-10-16T04:38:15;95764.44;;;5.10;100.00
57801;BME280;43627;42.728;23.256;2022-10-16T04:40:42;95769.00;;;5.16;100.00
57801;BME280;43627;42.728;23.256;2022-10-16T04:43:09;95753.47;;;5.21;100.00
57801;BME280;43627;42.728;23.256;2022-10-16T04:45:37;95761.84;;;5.30;100.00
57801;BME280;43627;42.728;23.256;2022-10-16T04:48:03;95761.56;;;5.24;100.00
57801;BME280;43627;42.728;23.256;2022-10-16T04:50:30;95765.72;;;5.29;100.00
57801;BME280;43627;42.728;23.256;2022-10-16T04:52:57;95776.25;;;5.23;100.00
57801;BME280;43627;42.728;23.256;2022-10-16T04:55:23;95771.28;;;5.18;100.00
57801;BME280;43627;42.728;23.256;2022-10-16T04:57:50;95778.97;;;5.20;100.00
57801;BME280;43627;42.728;23.256;2022-10-16T05:00:17;95782.91;;;5.15;100.00
57801;BME280;43627;42.728;23.256;2022-10-16T05:02:43;95779.66;;;5.27;100.00
57801;BME280;43627;42.728;23.256;2022-10-16T05:05:10;95777.53;;;5.42;100.00
57801;BME280;43627;42.728;23.256;2022-10-16T05:07:37;95775.00;;;5.82;100.00
57801;BME280;43627;42.728;23.256;2022-10-16T05:10:04;95782.81;;;6.03;100.00
57801;BME280;43627;42.728;23.256;2022-10-16T05:12:31;95791.88;;;6.59;100.00
57801;BME280;43627;42.728;23.256;2022-10-16T05:14:58;95787.50;;;7.05;100.00
57801;BME280;43627;42.728;23.256;2022-10-16T05:17:26;95786.22;;;7.82;100.00
57801;BME280;43627;42.728;23.256;2022-10-16T05:19:53;95782.28;;;8.65;100.00
57801;BME280;43627;42.728;23.256;2022-10-16T05:22:20;95776.34;;;9.37;100.00
57801;BME280;43627;42.728;23.256;2022-10-16T05:24:47;95777.53;;;10.12;100.00
57801;BME280;43627;42.728;23.256;2022-10-16T05:27:14;95792.47;;;10.90;100.00
57801;BME280;43627;42.728;23.256;2022-10-16T05:29:46;95800.97;;;11.88;100.00
57801;BME280;43627;42.728;23.256;2022-10-16T05:32:17;95788.19;;;12.44;86.34
57801;BME280;43627;42.728;23.256;2022-10-16T05:34:45;95787.47;;;12.62;89.66
57801;BME280;43627;42.728;23.256;2022-10-16T05:37:12;95786.38;;;12.77;84.86
57801;BME280;43627;42.728;23.256;2022-10-16T05:39:39;95806.91;;;13.00;83.37
57801;BME280;43627;42.728;23.256;2022-10-16T05:42:06;95795.94;;;13.19;75.76
57801;BME280;43627;42.728;23.256;2022-10-16T05:44:33;95800.66;;;13.46;76.50
57801;BME280;43627;42.728;23.256;2022-10-16T05:46:59;95805.03;;;13.52;79.58
57801;BME280;43627;42.728;23.256;2022-10-16T05:49:26;95800.75;;;13.60;73.41
57801;BME280;43627;42.728;23.256;2022-10-16T05:51:53;95803.03;;;13.62;68.29
57801;BME280;43627;42.728;23.256;2022-10-16T05:54:20;95805.06;;;13.43;72.12
57801;BME280;43627;42.728;23.256;2022-10-16T05:56:46;95809.03;;;13.42;72.67
57801;BME280;43627;42.728;23.256;2022-10-16T05:59:13;95808.75;;;13.22;80.95
57801;BME280;43627;42.728;23.256;2022-10-16T06:01:40;95829.56;;;12.73;81.94
57801;BME280;43627;42.728;23.256;2022-10-16T06:04:08;95828.47;;;12.43;80.79
57801;BME280;43627;42.728;23.256;2022-10-16T06:06:38;95835.59;;;12.50;80.58
57801;BME280;43627;42.728;23.256;2022-10-16T06:09:04;95830.91;;;12.41;92.64
57801;BME280;43627;42.728;23.256;2022-10-16T06:11:32;95839.03;;;11.61;90.67
57801;BME280;43627;42.728;23.256;2022-10-16T06:14:01;95844.47;;;11.08;98.71
57801;BME280;43627;42.728;23.256;2022-10-16T06:16:37;95840.72;;;10.93;99.81
57801;BME280;43627;42.728;23.256;2022-10-16T06:19:04;95832.84;;;10.60;100.00
57801;BME280;43627;42.728;23.256;2022-10-16T06:21:34;95836.59;;;10.02;100.00
57801;BME280;43627;42.728;23.256;2022-10-16T06:24:01;95834.75;;;10.12;100.00
57801;BME280;43627;42.728;23.256;2022-10-16T06:26:30;95856.56;;;10.38;100.00
57801;BME280;43627;42.728;23.256;2022-10-16T06:28:58;95828.66;;;10.34;100.00
57801;BME280;43627;42.728;23.256;2022-10-16T06:31:26;95854.66;;;10.73;100.00
57801;BME280;43627;42.728;23.256;2022-10-16T06:33:55;95854.91;;;10.53;100.00
57801;BME280;43627;42.728;23.256;2022-10-16T06:36:23;95853.63;;;10.19;100.00
57801;BME280;43627;42.728;23.256;2022-10-16T06:38:50;95843.81;;;10.09;100.00
57801;BME280;43627;42.728;23.256;2022-10-16T06:41:18;95854.19;;;10.27;100.00
57801;BME280;43627;42.728;23.256;2022-10-16T06:43:47;95856.56;;;10.38;100.00
57801;BME280;43627;42.728;23.256;2022-10-16T06:46:16;95854.81;;;10.31;100.00
57801;BME280;43627;42.728;23.256;2022-10-16T06:48:44;95872.13;;;10.50;100.00
57801;BME280;43627;42.728;23.256;2022-10-16T06:51:16;95877.78;;;10.68;100.00
57801;BME280;43627;42.728;23.256;2022-10-16T06:53:46;95881.03;;;10.76;100.00
57801;BME280;43627;42.728;23.256;2022-10-16T06:56:29;95883.44;;;10.61;100.00
57801;BME280;43627;42.728;23.256;2022-10-16T06:58:59;95886.03;;;10.77;100.00
57801;BME280;43627;42.728;23.256;2022-10-16T07:01:27;95879.81;;;10.77;100.00
57801;BME280;43627;42.728;23.256;2022-10-16T07:03:54;95884.56;;;10.64;100.00
57801;BME280;43627;42.728;23.256;2022-10-16T07:06:25;95887.97;;;10.90;100.00
57801;BME280;43627;42.728;23.256;2022-10-16T07:08:52;95874.75;;;10.88;100.00
57801;BME280;43627;42.728;23.256;2022-10-16T07:11:21;95894.97;;;10.91;100.00
57801;BME280;43627;42.728;23.256;2022-10-16T07:13:49;95879.16;;;10.85;100.00
57801;BME280;43627;42.728;23.256;2022-10-16T07:16:24;95893.22;;;10.37;100.00
57801;BME280;43627;42.728;23.256;2022-10-16T07:18:53;95889.59;;;10.52;100.00
57801;BME280;43627;42.728;23.256;2022-10-16T07:21:26;95888.81;;;10.65;100.00
57801;BME280;43627;42.728;23.256;2022-10-16T07:23:59;95883.75;;;10.76;100.00
57801;BME280;43627;42.728;23.256;2022-10-16T07:26:29;95891.63;;;10.61;100.00
57801;BME280;43627;42.728;23.256;2022-10-16T07:28:56;95891.44;;;10.55;100.00
57801;BME280;43627;42.728;23.256;2022-10-16T07:31:24;95885.75;;;10.50;100.00
57801;BME280;43627;42.728;23.256;2022-10-16T07:33:51;95897.88;;;10.62;100.00
57801;BME280;43627;42.728;23.256;2022-10-16T07:36:20;95906.66;;;10.78;100.00
57801;BME280;43627;42.728;23.256;2022-10-16T07:38:48;95891.03;;;10.92;100.00
57801;BME280;43627;42.728;23.256;2022-10-16T07:41:19;95895.63;;;11.16;100.00
57801;BME280;43627;42.728;23.256;2022-10-16T07:43:47;95889.31;;;11.41;100.00
57801;BME280;43627;42.728;23.256;2022-10-16T07:46:15;95889.22;;;11.54;100.00
57801;BME280;43627;42.728;23.256;2022-10-16T07:48:43;95893.00;;;11.48;100.00
57801;BME280;43627;42.728;23.256;2022-10-16T07:51:14;95890.69;;;11.46;100.00
57801;BME280;43627;42.728;23.256;2022-10-16T07:53:41;95898.19;;;11.77;100.00
57801;BME280;43627;42.728;23.256;2022-10-16T07:56:08;95904.59;;;12.05;98.39
57801;BME280;43627;42.728;23.256;2022-10-16T07:58:36;95907.72;;;12.25;97.24
57801;BME280;43627;42.728;23.256;2022-10-16T08:01:08;95906.56;;;12.44;92.78
57801;BME280;43627;42.728;23.256;2022-10-16T08:03:35;95907.06;;;12.52;91.57
57801;BME280;43627;42.728;23.256;2022-10-16T08:06:03;95911.19;;;12.66;92.57
57801;BME280;43627;42.728;23.256;2022-10-16T08:08:30;95900.09;;;12.78;94.46
57801;BME280;43627;42.728;23.256;2022-10-16T08:10:57;95907.00;;;13.01;88.00
57801;BME280;43627;42.728;23.256;2022-10-16T08:13:24;95900.00;;;13.09;83.51
57801;BME280;43627;42.728;23.256;2022-10-16T08:15:51;95897.84;;;13.04;82.29
57801;BME280;43627;42.728;23.256;2022-10-16T08:18:17;95897.56;;;13.11;83.52
57801;BME280;43627;42.728;23.256;2022-10-16T08:20:44;95893.94;;;13.24;82.08
57801;BME280;43627;42.728;23.256;2022-10-16T08:23:12;95885.72;;;13.42;80.71
57801;BME280;43627;42.728;23.256;2022-10-16T08:25:40;95894.84;;;13.48;79.73
57801;BME280;43627;42.728;23.256;2022-10-16T08:28:10;95884.94;;;13.51;77.05
57801;BME280;43627;42.728;23.256;2022-10-16T08:30:37;95886.47;;;13.52;77.53
57801;BME280;43627;42.728;23.256;2022-10-16T08:33:04;95880.22;;;13.51;75.66
57801;BME280;43627;42.728;23.256;2022-10-16T08:35:33;95891.16;;;13.69;73.97
57801;BME280;43627;42.728;23.256;2022-10-16T08:38:00;95886.75;;;13.63;74.36
57801;BME280;43627;42.728;23.256;2022-10-16T08:40:31;95892.38;;;13.68;74.23
57801;BME280;43627;42.728;23.256;2022-10-16T08:51:12;95898.88;;;13.89;66.58
57801;BME280;43627;42.728;23.256;2022-10-16T08:53:54;95900.50;;;14.14;67.51
57801;BME280;43627;42.728;23.256;2022-10-16T08:56:22;95892.31;;;14.47;64.64
57801;BME280;43627;42.728;23.256;2022-10-16T08:58:51;95901.16;;;14.42;62.55
57801;BME280;43627;42.728;23.256;2022-10-16T09:01:37;95891.53;;;14.47;63.29
57801;BME280;43627;42.728;23.256;2022-10-16T09:12:40;95901.69;;;14.65;57.38
57801;BME280;43627;42.728;23.256;2022-10-16T09:21:09;95897.78;;;14.80;55.10
57801;BME280;43627;42.728;23.256;2022-10-16T09:23:38;95886.97;;;14.77;55.54
57801;BME280;43627;42.728;23.256;2022-10-16T09:26:10;95893.50;;;15.03;54.44
57801;BME280;43627;42.728;23.256;2022-10-16T09:28:37;95885.50;;;14.91;54.02
57801;BME280;43627;42.728;23.256;2022-10-16T09:31:04;95894.72;;;15.26;53.49
57801;BME280;43627;42.728;23.256;2022-10-16T09:33:36;95893.63;;;15.48;54.04
57801;BME280;43627;42.728;23.256;2022-10-16T09:36:05;95895.22;;;15.93;52.48
57801;BME280;43627;42.728;23.256;2022-10-16T09:38:34;95893.09;;;16.32;51.06
57801;BME280;43627;42.728;23.256;2022-10-16T09:41:21;95893.47;;;16.10;50.13
57801;BME280;43627;42.728;23.256;2022-10-16T09:43:55;95893.19;;;16.08;51.52
57801;BME280;43627;42.728;23.256;2022-10-16T09:46:31;95884.25;;;16.43;49.20
57801;BME280;43627;42.728;23.256;2022-10-16T09:49:00;95886.13;;;16.51;48.39
57801;BME280;43627;42.728;23.256;2022-10-16T09:51:31;95873.53;;;16.30;48.86
57801;BME280;43627;42.728;23.256;2022-10-16T09:54:19;95878.41;;;16.55;48.05
57801;BME280;43627;42.728;23.256;2022-10-16T09:56:47;95870.75;;;16.45;48.12
57801;BME280;43627;42.728;23.256;2022-10-16T09:59:22;95870.91;;;16.71;47.69
57801;BME280;43627;42.728;23.256;2022-10-16T10:01:54;95865.81;;;16.49;47.90
57801;BME280;43627;42.728;23.256;2022-10-16T10:04:24;95869.13;;;16.38;48.46
57801;BME280;43627;42.728;23.256;2022-10-16T10:06:56;95874.19;;;16.40;48.49
57801;BME280;43627;42.728;23.256;2022-10-16T10:09:28;95873.50;;;16.45;48.64
57801;BME280;43627;42.728;23.256;2022-10-16T10:11:57;95869.13;;;16.38;48.38
57801;BME280;43627;42.728;23.256;2022-10-16T10:14:27;95866.25;;;16.62;48.28
57801;BME280;43627;42.728;23.256;2022-10-16T10:36:22;95853.59;;;17.31;46.50
57801;BME280;43627;42.728;23.256;2022-10-16T10:39:00;95847.59;;;17.33;45.93
57801;BME280;43627;42.728;23.256;2022-10-16T10:44:07;95832.59;;;17.13;45.72
57801;BME280;43627;42.728;23.256;2022-10-16T10:46:50;95834.56;;;17.33;45.37
57801;BME280;43627;42.728;23.256;2022-10-16T10:54:41;95825.38;;;17.68;45.35
57801;BME280;43627;42.728;23.256;2022-10-16T11:02:54;95823.81;;;17.35;45.16
57801;BME280;43627;42.728;23.256;2022-10-16T11:07:59;95807.88;;;17.45;44.17
57801;BME280;43627;42.728;23.256;2022-10-16T11:10:40;95817.72;;;17.26;44.78
57801;BME280;43627;42.728;23.256;2022-10-16T11:13:31;95815.59;;;17.41;44.87
57801;BME280;43627;42.728;23.256;2022-10-16T11:16:03;95817.25;;;17.53;45.13
57801;BME280;43627;42.728;23.256;2022-10-16T11:18:44;95810.34;;;17.69;44.70
57801;BME280;43627;42.728;23.256;2022-10-16T11:21:14;95799.41;;;17.75;44.92
57801;BME280;43627;42.728;23.256;2022-10-16T11:23:51;95799.31;;;17.95;43.63
57801;BME280;43627;42.728;23.256;2022-10-16T11:26:27;95796.50;;;18.26;43.81
57801;BME280;43627;42.728;23.256;2022-10-16T11:28:56;95808.22;;;18.10;42.52
57801;BME280;43627;42.728;23.256;2022-10-16T11:31:27;95802.72;;;17.58;43.16
57801;BME280;43627;42.728;23.256;2022-10-16T11:37:02;95798.00;;;17.90;43.41
57801;BME280;43627;42.728;23.256;2022-10-16T11:39:32;95790.44;;;17.85;42.71
57801;BME280;43627;42.728;23.256;2022-10-16T11:42:01;95800.19;;;17.81;41.46
57801;BME280;43627;42.728;23.256;2022-10-16T11:47:19;95787.44;;;17.57;42.28
57801;BME280;43627;42.728;23.256;2022-10-16T11:55:39;95787.28;;;18.35;41.77
57801;BME280;43627;42.728;23.256;2022-10-16T12:01:22;95800.88;;;18.39;41.77
57801;BME280;43627;42.728;23.256;2022-10-16T12:07:15;95794.47;;;18.21;39.50
57801;BME280;43627;42.728;23.256;2022-10-16T12:09:44;95800.81;;;17.96;38.91
57801;BME280;43627;42.728;23.256;2022-10-16T12:12:39;95786.03;;;17.99;41.39
57801;BME280;43627;42.728;23.256;2022-10-16T12:17:47;95779.38;;;18.60;40.76
57801;BME280;43627;42.728;23.256;2022-10-16T12:20:19;95793.41;;;18.56;39.56
57801;BME280;43627;42.728;23.256;2022-10-16T12:23:00;95786.38;;;18.55;39.98
57801;BME280;43627;42.728;23.256;2022-10-16T12:28:15;95802.56;;;18.73;40.62
57801;BME280;43627;42.728;23.256;2022-10-16T12:31:03;95754.38;;;18.32;40.22
57801;BME280;43627;42.728;23.256;2022-10-16T12:33:40;95788.38;;;18.54;40.57
57801;BME280;43627;42.728;23.256;2022-10-16T12:36:25;95796.00;;;18.65;38.45
57801;BME280;43627;42.728;23.256;2022-10-16T12:38:53;95793.34;;;18.93;38.47
57801;BME280;43627;42.728;23.256;2022-10-16T12:41:39;95768.75;;;18.95;37.64
57801;BME280;43627;42.728;23.256;2022-10-16T12:44:22;95776.81;;;19.10;38.10
57801;BME280;43627;42.728;23.256;2022-10-16T12:46:50;95789.81;;;18.93;39.33
57801;BME280;43627;42.728;23.256;2022-10-16T12:49:32;95790.56;;;18.88;39.56
57801;BME280;43627;42.728;23.256;2022-10-16T12:52:02;95783.03;;;18.88;39.74
57801;BME280;43627;42.728;23.256;2022-10-16T12:54:35;95793.94;;;19.14;39.93
57801;BME280;43627;42.728;23.256;2022-10-16T12:59:57;95801.19;;;18.52;39.00
57801;BME280;43627;42.728;23.256;2022-10-16T13:02:47;95808.50;;;18.61;39.81
57801;BME280;43627;42.728;23.256;2022-10-16T13:08:17;95809.97;;;18.56;33.93
57801;BME280;43627;42.728;23.256;2022-10-16T13:11:05;95763.25;;;18.04;34.69
57801;BME280;43627;42.728;23.256;2022-10-16T13:16:13;95806.38;;;18.39;34.61
57801;BME280;43627;42.728;23.256;2022-10-16T13:19:00;95810.56;;;18.28;34.82
57801;BME280;43627;42.728;23.256;2022-10-16T13:24:46;95806.47;;;18.55;32.78
57801;BME280;43627;42.728;23.256;2022-10-16T13:30:02;95806.75;;;18.63;33.37
57801;BME280;43627;42.728;23.256;2022-10-16T13:32:34;95804.84;;;18.38;33.44
57801;BME280;43627;42.728;23.256;2022-10-16T13:35:02;95809.16;;;18.39;34.06
57801;BME280;43627;42.728;23.256;2022-10-16T13:37:30;95809.59;;;18.32;34.46
57801;BME280;43627;42.728;23.256;2022-10-16T13:40:29;95809.22;;;18.50;34.61
57801;BME280;43627;42.728;23.256;2022-10-16T13:42:59;95800.09;;;18.38;35.10
57801;BME280;43627;42.728;23.256;2022-10-16T13:45:27;95810.56;;;18.28;35.78
57801;BME280;43627;42.728;23.256;2022-10-16T13:48:04;95812.16;;;18.41;36.17
57801;BME280;43627;42.728;23.256;2022-10-16T13:50:31;95813.59;;;18.31;35.63
57801;BME280;43627;42.728;23.256;2022-10-16T13:53:12;95818.59;;;18.26;35.44
57801;BME280;43627;42.728;23.256;2022-10-16T13:55:39;95814.31;;;18.25;35.49
57801;BME280;43627;42.728;23.256;2022-10-16T13:58:14;95809.03;;;18.22;35.84
57801;BME280;43627;42.728;23.256;2022-10-16T14:00:57;95816.38;;;18.36;35.84
57801;BME280;43627;42.728;23.256;2022-10-16T14:03:25;95815.69;;;18.47;35.29
57801;BME280;43627;42.728;23.256;2022-10-16T14:05:55;95829.00;;;18.43;35.66
57801;BME280;43627;42.728;23.256;2022-10-16T14:08:25;95814.47;;;18.53;35.47
57801;BME280;43627;42.728;23.256;2022-10-16T14:10:57;95827.25;;;18.45;35.49
57801;BME280;43627;42.728;23.256;2022-10-16T14:15:54;95819.56;;;18.23;35.74
57801;BME280;43627;42.728;23.256;2022-10-16T14:18:25;95833.59;;;17.88;36.70
57801;BME280;43627;42.728;23.256;2022-10-16T14:21:12;95828.84;;;17.89;37.22
57801;BME280;43627;42.728;23.256;2022-10-16T14:23:42;95826.09;;;17.89;36.53
57801;BME280;43627;42.728;23.256;2022-10-16T14:28:36;95832.53;;;17.54;36.92
57801;BME280;43627;42.728;23.256;2022-10-16T14:33:56;95829.19;;;17.70;36.93
57801;BME280;43627;42.728;23.256;2022-10-16T14:36:23;95807.81;;;17.65;36.86
57801;BME280;43627;42.728;23.256;2022-10-16T14:38:59;95838.50;;;17.53;37.56
57801;BME280;43627;42.728;23.256;2022-10-16T14:41:31;95829.53;;;17.32;37.57
57801;BME280;43627;42.728;23.256;2022-10-16T14:44:10;95832.56;;;17.34;38.08
57801;BME280;43627;42.728;23.256;2022-10-16T14:46:40;95826.53;;;17.09;38.41
57801;BME280;43627;42.728;23.256;2022-10-16T14:51:36;95845.28;;;16.85;38.45
57801;BME280;43627;42.728;23.256;2022-10-16T14:54:04;95853.88;;;16.72;38.35
57801;BME280;43627;42.728;23.256;2022-10-16T14:56:35;95851.41;;;16.74;38.47
57801;BME280;43627;42.728;23.256;2022-10-16T14:59:17;95847.50;;;16.46;38.82
57801;BME280;43627;42.728;23.256;2022-10-16T15:01:45;95843.00;;;16.48;39.21
57801;BME280;43627;42.728;23.256;2022-10-16T15:04:15;95803.75;;;16.13;39.36
57801;BME280;43627;42.728;23.256;2022-10-16T15:06:43;95837.34;;;16.37;39.64
57801;BME280;43627;42.728;23.256;2022-10-16T15:09:11;95820.63;;;16.06;39.99
57801;BME280;43627;42.728;23.256;2022-10-16T15:11:38;95873.94;;;16.23;40.22